Time;durP1;ratioP1;P1;durP2;ratioP2;P2;SDS_P1;SDS_P2;PMS_P1;PMS_P2;Temp;Humidity;BMP_temperature;BMP_pressure;BME280_temperature;BME280_humidity;BME280_pressure;Samples;Min_cycle;Max_cycle;Signal;HPM_P1;HPM_P2
2023/09/30 00:00:58;;;;;;;71.93;6.47;;;;;;;23.13;57.84;99843.16;7304404;19;129904;-38
2023/09/30 00:03:23;;;;;;;82.40;7.23;;;;;;;23.13;57.21;99845.78;7304198;19;130086;-36
2023/09/30 00:05:48;;;;;;;79.90;7.00;;;;;;;23.12;57.75;99849.38;7304226;19;128991;-36
2023/09/30 00:08:13;;;;;;;129.77;9.00;;;;;;;23.13;57.17;99846.59;7305468;19;130360;-36
2023/09/30 00:10:39;;;;;;;45.60;5.27;;;;;;;23.12;58.16;99852.81;7303859;19;129099;-34
2023/09/30 00:13:06;;;;;;;90.37;7.20;;;;;;;23.12;57.30;99862.50;7304005;19;129183;-35
2023/09/30 00:15:32;;;;;;;98.93;7.32;;;;;;;23.10;57.13;99861.78;7305059;19;130516;-37
2023/09/30 00:17:58;;;;;;;119.47;9.13;;;;;;;23.03;57.43;99845.81;7305151;19;129631;-35
2023/09/30 00:20:23;;;;;;;109.40;8.50;;;;;;;23.11;57.67;99872.13;7304931;19;129277;-35
2023/09/30 00:22:48;;;;;;;99.13;7.30;;;;;;;23.03;57.63;99850.22;7304384;19;129346;-35
2023/09/30 00:25:14;;;;;;;105.38;7.32;;;;;;;23.12;57.79;99875.59;7304021;19;130753;-35
2023/09/30 00:27:39;;;;;;;106.53;8.17;;;;;;;23.00;57.41;99858.38;7305552;19;129535;-35
2023/09/30 00:30:06;;;;;;;71.53;6.40;;;;;;;23.14;58.04;99882.34;7304787;19;129358;-36
2023/09/30 00:32:31;;;;;;;107.57;8.38;;;;;;;23.11;57.83;99873.94;7302805;19;129662;-39
2023/09/30 00:34:57;;;;;;;100.77;6.90;;;;;;;23.13;58.34;99874.63;7302132;19;130161;-36
2023/09/30 00:37:22;;;;;;;82.33;5.83;;;;;;;23.11;58.30;99879.16;7303704;19;130644;-36
2023/09/30 00:39:47;;;;;;;80.00;6.17;;;;;;;23.11;58.42;99874.75;7304769;19;129431;-36
2023/09/30 00:42:13;;;;;;;53.75;4.68;;;;;;;23.13;57.98;99887.72;7303047;19;129436;-36
2023/09/30 00:44:39;;;;;;;88.47;6.03;;;;;;;23.15;58.28;99883.97;7304804;19;130080;-35
2023/09/30 00:47:04;;;;;;;108.00;6.93;;;;;;;23.12;57.84;99889.53;7303643;19;129177;-35
2023/09/30 00:49:30;;;;;;;117.80;8.43;;;;;;;23.10;58.22;99890.66;7302761;19;129489;-35
2023/09/30 00:51:56;;;;;;;74.65;5.57;;;;;;;23.10;58.53;99890.66;7302729;19;129539;-34
2023/09/30 00:54:25;;;;;;;96.77;6.23;;;;;;;23.03;58.85;99879.06;7302616;19;129968;-36
2023/09/30 00:56:52;;;;;;;81.47;5.78;;;;;;;23.11;58.38;99897.53;7306509;19;130381;-36
2023/09/30 00:59:19;;;;;;;67.32;5.18;;;;;;;23.11;58.62;99906.25;7300386;19;129604;-35
2023/09/30 01:01:45;;;;;;;66.93;5.35;;;;;;;23.12;58.09;99907.88;7302021;19;129830;-35
2023/09/30 01:04:11;;;;;;;103.37;6.10;;;;;;;23.09;58.68;99916.03;7305046;19;131463;-35
2023/09/30 01:06:37;;;;;;;107.15;6.88;;;;;;;23.09;58.09;99916.03;7303933;19;129946;-35
2023/09/30 01:09:03;;;;;;;87.90;5.40;;;;;;;23.09;57.97;99918.66;7304088;19;128978;-36
2023/09/30 01:11:29;;;;;;;114.60;6.93;;;;;;;22.97;57.61;99898.00;7301093;19;129856;-35
2023/09/30 01:13:55;;;;;;;100.72;6.20;;;;;;;23.11;58.61;99929.00;7302715;19;129051;-36
2023/09/30 01:16:21;;;;;;;85.67;5.40;;;;;;;23.08;58.27;99918.81;7304388;19;130774;-38
2023/09/30 01:18:46;;;;;;;86.30;5.33;;;;;;;23.02;58.31;99908.88;7303330;19;129892;-35
2023/09/30 01:21:12;;;;;;;96.40;5.47;;;;;;;23.10;57.93;99928.19;7301111;19;129459;-37
2023/09/30 01:23:41;;;;;;;169.30;8.90;;;;;;;23.07;57.89;99928.47;7304993;19;129513;-38
2023/09/30 01:26:12;;;;;;;97.07;5.35;;;;;;;23.08;58.29;99932.75;7311238;19;130793;-34
2023/09/30 01:28:38;;;;;;;102.25;6.18;;;;;;;23.09;58.70;99936.19;7311276;19;129400;-35
2023/09/30 01:31:05;;;;;;;83.20;4.93;;;;;;;23.07;58.22;99938.94;7309558;19;130325;-38
2023/09/30 01:33:30;;;;;;;133.73;6.95;;;;;;;23.06;57.87;99946.97;7308082;19;131016;-36
2023/09/30 01:35:56;;;;;;;83.87;4.57;;;;;;;23.04;57.96;99954.13;7310472;19;129350;-38
2023/09/30 01:38:21;;;;;;;71.90;4.20;;;;;;;22.98;58.48;99933.72;7310086;19;129675;-35
2023/09/30 01:40:47;;;;;;;75.18;4.15;;;;;;;23.06;57.88;99949.56;7308322;19;129237;-35
2023/09/30 01:43:15;;;;;;;131.00;6.77;;;;;;;23.08;57.83;99966.00;7309982;19;129030;-36
2023/09/30 01:45:41;;;;;;;98.10;5.45;;;;;;;23.07;57.67;99959.13;7311058;19;130689;-36
2023/09/30 01:48:10;;;;;;;68.43;4.10;;;;;;;23.08;58.06;99966.00;7311414;19;129687;-36
2023/09/30 01:50:39;;;;;;;77.97;4.43;;;;;;;23.08;58.25;99968.63;7308735;19;129692;-36
2023/09/30 01:53:12;;;;;;;96.18;4.88;;;;;;;23.08;57.79;99977.34;7309736;19;130186;-35
2023/09/30 01:55:37;;;;;;;114.28;6.07;;;;;;;23.09;58.05;99978.13;7308401;19;130675;-36
2023/09/30 01:58:03;;;;;;;109.93;5.57;;;;;;;23.07;57.92;99972.22;7309052;19;129165;-38
2023/09/30 02:00:28;;;;;;;84.17;4.60;;;;;;;23.06;57.95;99981.06;7308755;19;129010;-35
2023/09/30 02:02:57;;;;;;;82.13;4.47;;;;;;;23.11;57.30;99977.06;7309322;19;130001;-35
2023/09/30 02:05:23;;;;;;;109.30;5.50;;;;;;;23.11;57.74;99979.66;7310299;19;130520;-36
2023/09/30 02:07:49;;;;;;;29.55;2.10;;;;;;;23.10;58.13;99980.66;7308362;19;130636;-38
2023/09/30 02:10:15;;;;;;;52.60;3.13;;;;;;;23.07;57.69;99978.28;7308190;19;129297;-38
2023/09/30 02:12:40;;;;;;;91.10;4.87;;;;;;;23.10;57.69;99979.81;7309124;19;131384;-37
2023/09/30 02:15:07;;;;;;;76.90;4.20;;;;;;;23.06;57.71;99987.13;7307381;19;130561;-36
2023/09/30 02:17:33;;;;;;;98.40;5.13;;;;;;;23.05;57.21;99990.72;7308963;19;129527;-37
2023/09/30 02:19:58;;;;;;;94.03;5.63;;;;;;;22.97;57.52;99989.75;7307050;19;129349;-34
2023/09/30 02:22:24;;;;;;;106.23;5.40;;;;;;;23.04;57.31;99999.53;7304949;19;129857;-35
2023/09/30 02:24:50;;;;;;;84.20;4.45;;;;;;;22.89;57.38;99987.81;7307335;19;130729;-37
2023/09/30 02:27:16;;;;;;;79.17;4.50;;;;;;;22.94;57.53;99995.28;7307859;19;129142;-36
2023/09/30 02:29:41;;;;;;;112.30;5.70;;;;;;;23.07;57.92;100016.81;7306250;19;128973;-38
2023/09/30 02:32:07;;;;;;;107.00;5.20;;;;;;;23.05;57.52;100018.75;7306154;19;131330;-36
2023/09/30 02:34:33;;;;;;;123.77;6.70;;;;;;;23.02;56.98;100019.03;7302162;19;130078;-38
2023/09/30 02:36:59;;;;;;;112.07;5.53;;;;;;;23.03;57.43;100018.03;7308595;19;129204;-35
2023/09/30 02:39:26;;;;;;;;;;;;;;;23.03;58.69;100021.50;7309676;19;129706;-35
2023/09/30 02:41:52;;;;;;;114.95;5.57;;;;;;;22.88;56.64;100006.31;7306010;19;130563;-39
2023/09/30 02:44:18;;;;;;;64.53;3.78;;;;;;;23.02;57.31;100029.53;7309283;19;130400;-38
2023/09/30 02:46:43;;;;;;;72.67;3.83;;;;;;;22.86;56.49;100014.31;7306943;19;129000;-35
2023/09/30 02:49:08;;;;;;;76.07;4.03;;;;;;;23.03;57.27;100037.25;7306675;19;129465;-35
2023/09/30 02:51:34;;;;;;;113.63;6.10;;;;;;;23.02;56.53;100047.88;7305078;19;130133;-37
2023/09/30 02:53:59;;;;;;;67.60;3.80;;;;;;;23.02;56.36;100046.06;7307445;19;131060;-36
2023/09/30 02:56:26;;;;;;;60.67;3.70;;;;;;;22.99;56.34;100041.09;7308558;19;129157;-36
2023/09/30 02:58:52;;;;;;;81.03;4.95;;;;;;;22.97;56.90;100052.69;7306875;19;129429;-35
2023/09/30 03:01:17;;;;;;;158.38;8.18;;;;;;;22.95;56.36;100054.63;7305738;19;130265;-35
2023/09/30 03:03:44;;;;;;;65.47;4.13;;;;;;;23.02;56.20;100063.59;7306161;19;130322;-36
2023/09/30 03:06:10;;;;;;;66.75;3.67;;;;;;;23.06;56.33;100070.22;7307503;19;129165;-35
2023/09/30 03:08:36;;;;;;;103.80;5.67;;;;;;;23.04;56.70;100067.75;7307335;19;129360;-37
2023/09/30 03:11:01;;;;;;;86.83;4.63;;;;;;;23.01;56.02;100075.88;7306349;19;130804;-38
2023/09/30 03:13:27;;;;;;;86.93;5.07;;;;;;;23.00;56.10;100087.34;7307042;19;130532;-35
2023/09/30 03:15:52;;;;;;;62.00;4.03;;;;;;;22.99;55.60;100092.72;7303954;19;130419;-37
2023/09/30 03:18:17;;;;;;;112.17;5.97;;;;;;;22.99;55.24;100084.88;7306480;19;129436;-36
2023/09/30 03:20:43;;;;;;;100.77;5.80;;;;;;;22.99;55.31;100092.72;7306067;19;129773;-35
2023/09/30 03:23:09;;;;;;;60.10;3.55;;;;;;;23.02;55.64;100097.69;7307883;19;130752;-35
2023/09/30 03:25:35;;;;;;;92.68;5.20;;;;;;;22.87;55.19;100080.69;7306673;19;129601;-35
2023/09/30 03:28:00;;;;;;;90.17;5.33;;;;;;;22.98;55.27;100102.38;7306072;19;129493;-36
2023/09/30 03:30:26;;;;;;;74.07;4.40;;;;;;;22.96;55.09;100106.94;7305453;19;129412;-36
2023/09/30 03:32:51;;;;;;;81.25;4.72;;;;;;;22.99;55.71;100113.72;7307367;19;130592;-37
2023/09/30 03:35:17;;;;;;;102.40;5.90;;;;;;;22.99;55.02;100124.19;7302613;19;129123;-38
2023/09/30 03:37:44;;;;;;;159.73;8.30;;;;;;;22.95;54.54;100125.44;7305940;19;129044;-35
2023/09/30 03:40:14;;;;;;;;;;;;;;;22.97;56.49;100131.38;7308238;19;131245;-36
2023/09/30 03:42:42;;;;;;;130.23;7.53;;;;;;;22.94;54.64;100142.13;7307180;19;130446;-35
2023/09/30 03:45:08;;;;;;;80.63;4.60;;;;;;;22.84;54.78;100125.56;7305873;19;129422;-35
2023/09/30 03:47:37;;;;;;;132.57;6.97;;;;;;;22.91;55.22;100145.84;7304300;19;129607;-35
2023/09/30 03:50:04;;;;;;;79.70;4.80;;;;;;;22.93;55.34;100161.44;7305845;19;130871;-35
2023/09/30 03:52:32;;;;;;;51.50;3.28;;;;;;;22.96;54.36;100159.38;7303642;19;131136;-35
2023/09/30 03:54:58;;;;;;;76.40;5.22;;;;;;;22.81;54.22;100138.91;7302485;19;128966;-35
2023/09/30 03:57:24;;;;;;;72.97;4.30;;;;;;;23.00;54.52;100165.19;7305005;19;129714;-37
2023/09/30 03:59:49;;;;;;;90.87;5.33;;;;;;;22.99;54.85;100163.53;7304104;19;130896;-38
2023/09/30 04:02:14;;;;;;;83.85;5.03;;;;;;;22.97;54.01;100178.56;7304001;19;129616;-35
2023/09/30 04:04:40;;;;;;;107.47;6.20;;;;;;;22.95;54.26;100177.88;7306660;19;129452;-35
2023/09/30 04:07:06;;;;;;;96.23;5.83;;;;;;;22.95;54.66;100177.88;7306567;19;128854;-36
2023/09/30 04:09:32;;;;;;;86.65;5.43;;;;;;;22.94;54.13;100187.53;7306279;19;131005;-37
2023/09/30 04:11:58;;;;;;;76.43;4.67;;;;;;;22.84;54.24;100173.56;7301766;19;130361;-36
2023/09/30 04:14:24;;;;;;;64.03;4.13;;;;;;;22.95;54.12;100190.97;7304002;19;129280;-38
2023/09/30 04:16:50;;;;;;;141.05;7.70;;;;;;;22.95;54.59;100194.44;7305856;19;129388;-35
2023/09/30 04:19:16;;;;;;;84.43;5.22;;;;;;;22.95;54.37;100185.75;7305831;19;131394;-37
2023/09/30 04:21:41;;;;;;;106.37;6.77;;;;;;;22.90;53.77;100182.69;7304212;19;130324;-35
2023/09/30 04:24:07;;;;;;;72.43;4.50;;;;;;;22.82;54.61;100169.41;7304393;19;129403;-35
2023/09/30 04:26:32;;;;;;;103.40;6.37;;;;;;;22.93;54.03;100193.75;7306665;19;129525;-38
2023/09/30 04:28:58;;;;;;;81.47;4.97;;;;;;;22.93;53.90;100198.16;7306290;19;129516;-39
2023/09/30 04:31:23;;;;;;;104.97;6.30;;;;;;;22.96;53.91;100211.81;7304449;19;130459;-34
2023/09/30 04:33:51;;;;;;;111.40;6.10;;;;;;;22.95;54.24;100215.41;7304822;19;133639;-36
2023/09/30 04:36:17;;;;;;;98.55;6.05;;;;;;;22.95;54.01;100218.03;7304590;19;129221;-38
2023/09/30 04:38:43;;;;;;;112.83;7.13;;;;;;;22.95;54.25;100211.97;7305717;19;130225;-36
2023/09/30 04:41:08;;;;;;;74.67;4.83;;;;;;;22.93;54.23;100224.38;7304602;19;130561;-37
2023/09/30 04:43:34;;;;;;;83.73;5.10;;;;;;;22.91;53.84;100215.78;7306186;19;129306;-36
2023/09/30 04:46:01;;;;;;;121.68;6.78;;;;;;;22.94;54.45;100226.03;7303643;19;128822;-38
2023/09/30 04:48:26;;;;;;;78.10;5.57;;;;;;;22.95;53.93;100238.19;7306039;19;131429;-38
2023/09/30 04:50:51;;;;;;;79.18;5.30;;;;;;;22.92;53.71;100233.22;7302036;19;129758;-35
2023/09/30 04:53:17;;;;;;;71.07;4.57;;;;;;;22.90;53.43;100235.13;7304802;19;129505;-35
2023/09/30 04:55:44;;;;;;;158.83;8.93;;;;;;;22.89;53.28;100238.72;7301543;19;128966;-36
2023/09/30 04:58:09;;;;;;;;;;;;;;;22.91;56.17;100244.63;7308932;19;129707;-35
2023/09/30 05:00:35;;;;;;;85.47;5.55;;;;;;;22.82;53.79;100237.59;7309674;19;129863;-36
2023/09/30 05:03:00;;;;;;;137.23;8.40;;;;;;;22.89;53.51;100254.44;7310646;19;130598;-35
2023/09/30 05:05:26;;;;;;;76.63;5.07;;;;;;;22.91;53.57;100257.75;7310811;19;128873;-34
2023/09/30 05:07:51;;;;;;;106.88;7.05;;;;;;;22.89;54.55;100254.44;7310004;19;129367;-36
2023/09/30 05:10:17;;;;;;;79.93;5.53;;;;;;;22.90;53.91;100262.19;7310173;19;130326;-37
2023/09/30 05:12:45;;;;;;;144.43;8.65;;;;;;;22.91;54.06;100257.75;7310754;19;129442;-35
2023/09/30 05:15:16;;;;;;;108.63;6.53;;;;;;;22.89;53.65;100250.03;7309381;19;129318;-37
2023/09/30 05:17:44;;;;;;;93.82;5.90;;;;;;;22.88;53.65;100258.03;7310319;19;131402;-35
2023/09/30 05:20:12;;;;;;;67.13;4.43;;;;;;;22.87;54.24;100257.19;7308522;19;130287;-35
2023/09/30 05:22:38;;;;;;;99.93;6.45;;;;;;;22.88;53.70;100251.00;7307975;19;129681;-38
2023/09/30 05:25:04;;;;;;;;;;;;;;;22.89;55.07;100254.44;7311043;19;129604;-38
2023/09/30 05:27:29;;;;;;;87.60;5.47;;;;;;;22.89;53.74;100249.22;7310680;19;129860;-36
2023/09/30 05:29:55;;;;;;;99.53;5.97;;;;;;;22.89;54.24;100260.50;7309022;19;130303;-37
2023/09/30 05:32:21;;;;;;;79.10;5.40;;;;;;;22.87;54.04;100254.56;7307360;19;129428;-35
2023/09/30 05:34:48;;;;;;;132.90;7.63;;;;;;;22.85;53.68;100247.81;7308527;19;129230;-35
2023/09/30 05:37:13;;;;;;;79.60;5.68;;;;;;;22.88;53.42;100252.78;7310977;19;130271;-37
2023/09/30 05:39:38;;;;;;;71.10;4.87;;;;;;;22.87;54.12;100256.38;7309069;19;129176;-36
2023/09/30 05:42:05;;;;;;;125.70;7.35;;;;;;;22.86;53.79;100250.28;7306934;19;129259;-32
2023/09/30 05:44:31;;;;;;;99.43;5.95;;;;;;;22.89;54.07;100254.44;7310149;19;129388;-35
2023/09/30 05:46:57;;;;;;;85.20;5.85;;;;;;;22.87;53.87;100251.13;7308943;19;130196;-34
2023/09/30 05:49:23;;;;;;;106.87;6.57;;;;;;;22.88;53.87;100252.78;7309414;19;130701;-35
2023/09/30 05:51:50;;;;;;;116.75;6.93;;;;;;;22.89;53.63;100249.22;7308789;19;130324;-34
2023/09/30 05:54:16;;;;;;;90.93;5.53;;;;;;;22.89;53.59;100257.06;7308573;19;129545;-36
2023/09/30 05:56:43;;;;;;;76.97;5.30;;;;;;;22.92;53.99;100262.06;7307999;19;130065;-35
2023/09/30 05:59:09;;;;;;;79.50;5.40;;;;;;;22.93;54.07;100261.06;7310131;19;130442;-36
2023/09/30 06:01:35;;;;;;;96.15;6.10;;;;;;;22.85;53.47;100247.81;7307837;19;129286;-37
2023/09/30 06:04:02;;;;;;;99.32;6.15;;;;;;;22.90;53.75;100261.34;7309541;19;129049;-36
2023/09/30 06:06:30;;;;;;;54.70;4.28;;;;;;;22.88;53.81;100258.84;7309357;19;130820;-34
2023/09/30 06:08:58;;;;;;;129.95;8.05;;;;;;;22.83;53.93;100258.41;7305952;19;129693;-36
2023/09/30 06:11:24;;;;;;;111.43;6.22;;;;;;;22.76;53.61;100253.81;7307731;19;129729;-34
2023/09/30 06:13:58;;;;;;;89.33;5.70;;;;;;;22.87;53.84;100272.91;7309732;19;129544;-39
2023/09/30 06:16:26;;;;;;;58.72;4.25;;;;;;;22.88;54.27;100279.00;7309031;19;130500;-36
2023/09/30 06:18:51;;;;;;;123.72;7.68;;;;;;;22.85;53.43;100276.63;7308643;19;130660;-36
2023/09/30 06:21:20;;;;;;;75.80;5.07;;;;;;;22.88;54.13;100284.25;7307287;19;129361;-35
2023/09/30 06:23:46;;;;;;;147.38;8.25;;;;;;;22.88;53.70;100284.25;7308137;19;129015;-34
2023/09/30 06:26:11;;;;;;;78.47;5.27;;;;;;;22.89;53.92;100297.22;7309579;19;131652;-36
2023/09/30 06:28:40;;;;;;;66.90;5.03;;;;;;;22.89;53.72;100312.13;7307057;19;130393;-38
2023/09/30 06:31:07;;;;;;;58.08;4.07;;;;;;;22.90;54.46;100311.16;7307697;19;129752;-36
2023/09/30 06:33:34;;;;;;;113.13;6.22;;;;;;;22.89;54.05;100309.50;7308772;19;129755;-36
2023/09/30 06:36:02;;;;;;;85.38;5.47;;;;;;;22.75;54.17;100294.13;7304789;19;130977;-36
2023/09/30 06:38:27;;;;;;;91.68;5.70;;;;;;;22.87;53.52;100319.28;7307486;19;130463;-36
2023/09/30 06:40:53;;;;;;;93.70;6.07;;;;;;;22.86;54.32;100328.94;7307243;19;129458;-36
2023/09/30 06:43:19;;;;;;;113.97;6.47;;;;;;;22.88;53.76;100334.91;7309879;19;129501;-38
2023/09/30 06:45:46;;;;;;;77.27;5.37;;;;;;;22.87;53.63;100335.03;7309173;19;129559;-36
2023/09/30 06:48:12;;;;;;;77.85;4.88;;;;;;;22.90;53.61;100346.09;7307955;19;131126;-35
2023/09/30 06:50:48;;;;;;;69.10;5.13;;;;;;;22.90;55.46;100345.25;7305928;19;129396;-34
2023/09/30 06:53:15;;;;;;;106.40;6.10;;;;;;;22.86;54.19;100343.84;7309043;19;129626;-35
2023/09/30 06:55:41;;;;;;;92.78;5.47;;;;;;;22.88;53.94;100341.91;7306684;19;130332;-36
2023/09/30 06:58:08;;;;;;;73.28;4.97;;;;;;;22.88;53.23;100348.00;7308362;19;129882;-34
2023/09/30 07:00:35;;;;;;;78.83;5.07;;;;;;;22.90;53.96;100350.50;7307070;19;129797;-35
2023/09/30 07:03:01;;;;;;;156.60;8.65;;;;;;;22.88;53.70;100345.38;7306531;19;130002;-35
2023/09/30 07:05:28;;;;;;;121.28;7.18;;;;;;;22.85;54.00;100347.44;7307760;19;130267;-36
2023/09/30 07:07:53;;;;;;;102.95;6.32;;;;;;;22.86;53.78;100354.31;7307663;19;130446;-34
2023/09/30 07:10:19;;;;;;;99.97;5.97;;;;;;;22.86;53.62;100354.31;7306950;19;131272;-34
2023/09/30 07:12:44;;;;;;;91.60;5.63;;;;;;;22.85;53.65;100352.69;7305145;19;129845;-34
2023/09/30 07:15:10;;;;;;;89.07;5.47;;;;;;;22.88;54.33;100357.66;7306472;19;130246;-38
2023/09/30 07:17:36;;;;;;;72.17;4.80;;;;;;;22.88;53.53;100362.91;7306312;19;129627;-34
2023/09/30 07:20:04;;;;;;;64.68;4.78;;;;;;;22.86;53.77;100360.41;7304895;19;129469;-34
2023/09/30 07:22:31;;;;;;;116.88;6.57;;;;;;;22.83;54.15;100365.06;7302900;19;129881;-37
2023/09/30 07:24:57;;;;;;;89.90;5.95;;;;;;;22.86;53.70;100370.06;7305411;19;130350;-36
2023/09/30 07:27:23;;;;;;;87.68;5.47;;;;;;;22.87;53.99;100380.41;7307016;19;131391;-34
2023/09/30 07:29:48;;;;;;;105.35;6.82;;;;;;;22.85;54.18;100384.13;7304400;19;129149;-36
2023/09/30 07:32:14;;;;;;;127.43;7.03;;;;;;;22.87;53.36;100387.47;7305055;19;128982;-37
2023/09/30 07:34:40;;;;;;;107.37;6.90;;;;;;;22.84;53.89;100372.00;7305845;19;130396;-38
2023/09/30 07:37:05;;;;;;;65.17;4.53;;;;;;;22.71;53.77;100347.78;7305252;19;130010;-34
2023/09/30 07:39:31;;;;;;;93.97;6.23;;;;;;;22.84;53.71;100372.00;7305726;19;129784;-36
2023/09/30 07:41:56;;;;;;;132.20;8.40;;;;;;;22.85;53.63;100363.16;7303797;19;129046;-38
2023/09/30 07:44:21;;;;;;;67.33;5.20;;;;;;;22.85;53.71;100342.19;7305176;19;129652;-35
2023/09/30 07:46:47;;;;;;;98.10;6.27;;;;;;;22.83;54.13;100349.34;7303936;19;130723;-34
2023/09/30 07:49:12;;;;;;;92.97;5.67;;;;;;;22.83;53.50;100354.59;7306140;19;129688;-34
2023/09/30 07:51:39;;;;;;;110.63;6.50;;;;;;;22.83;53.39;100365.06;7304832;19;128991;-38
2023/09/30 07:54:05;;;;;;;102.47;6.55;;;;;;;22.68;53.79;100345.38;7307290;19;130554;-35
2023/09/30 07:56:31;;;;;;;51.00;4.50;;;;;;;22.80;53.53;100371.44;7307117;19;131540;-37
2023/09/30 07:58:56;;;;;;;104.83;6.93;;;;;;;22.84;53.41;100377.25;7303582;19;130997;-35
2023/09/30 08:01:21;;;;;;;73.13;4.87;;;;;;;22.83;53.23;100370.31;7305135;19;129024;-37
2023/09/30 08:03:47;;;;;;;64.45;4.95;;;;;;;22.85;53.35;100379.72;7306011;19;129091;-37
2023/09/30 08:06:13;;;;;;;99.80;6.10;;;;;;;22.76;53.22;100358.69;7305796;19;130090;-38
2023/09/30 08:08:39;;;;;;;108.32;6.43;;;;;;;22.86;53.40;100377.94;7305112;19;129122;-35
2023/09/30 08:11:05;;;;;;;109.30;7.07;;;;;;;22.72;53.90;100347.66;7303200;19;129714;-36
2023/09/30 08:13:32;;;;;;;70.80;4.85;;;;;;;22.87;53.04;100366.50;7306226;19;130172;-34
2023/09/30 08:15:58;;;;;;;99.75;6.35;;;;;;;22.84;52.87;100367.56;7302947;19;130984;-35
2023/09/30 08:18:23;;;;;;;102.20;5.90;;;;;;;22.83;53.73;100370.31;7306121;19;129598;-36
2023/09/30 08:20:49;;;;;;;116.13;6.83;;;;;;;22.85;53.33;100386.75;7303506;19;129084;-35
2023/09/30 08:23:14;;;;;;;87.33;5.83;;;;;;;22.81;53.24;100398.44;7306276;19;131093;-34
2023/09/30 08:25:40;;;;;;;71.88;4.90;;;;;;;22.81;53.91;100382.72;7304174;19;130129;-35
2023/09/30 08:28:05;;;;;;;131.93;7.63;;;;;;;22.78;53.34;100388.22;7304400;19;129715;-34
2023/09/30 08:30:33;;;;;;;76.90;5.53;;;;;;;22.81;53.65;100385.34;7306097;19;129042;-35
2023/09/30 08:32:59;;;;;;;133.43;7.63;;;;;;;22.82;53.40;100385.25;7301438;19;130619;-35
2023/09/30 08:35:24;;;;;;;63.67;4.57;;;;;;;22.72;53.22;100367.78;7302984;19;130391;-36
2023/09/30 08:37:50;;;;;;;123.00;7.00;;;;;;;22.78;53.55;100382.97;7304074;19;129254;-36
2023/09/30 08:40:20;;;;;;;77.82;4.97;;;;;;;22.82;53.80;100398.34;7305556;19;129182;-36
2023/09/30 08:42:51;;;;;;;53.05;3.90;;;;;;;22.82;53.92;100384.41;7303502;19;131948;-35
2023/09/30 08:45:17;;;;;;;68.72;5.13;;;;;;;22.83;53.50;100392.13;7304396;19;129316;-33
2023/09/30 08:47:43;;;;;;;114.32;6.50;;;;;;;22.81;52.98;100383.56;7305009;19;129471;-35
2023/09/30 08:50:10;;;;;;;98.13;5.80;;;;;;;22.81;53.77;100394.03;7304440;19;128921;-36
2023/09/30 08:52:38;;;;;;;51.97;4.30;;;;;;;22.84;53.22;100392.97;7302705;19;130262;-36
2023/09/30 08:55:03;;;;;;;95.43;7.18;;;;;;;22.85;53.02;100398.09;7302139;19;130607;-32
2023/09/30 08:57:30;;;;;;;104.10;6.30;;;;;;;22.85;53.51;100399.88;7303937;19;129622;-35
2023/09/30 08:59:55;;;;;;;131.70;7.67;;;;;;;22.86;53.06;100398.91;7302900;19;129507;-36
2023/09/30 09:02:20;;;;;;;58.28;4.45;;;;;;;22.85;52.88;100397.25;7303284;19;130128;-35
2023/09/30 09:04:46;;;;;;;74.83;5.23;;;;;;;22.84;52.78;100404.28;7304482;19;130289;-36
2023/09/30 09:07:12;;;;;;;92.57;5.50;;;;;;;22.81;52.89;100403.69;7303237;19;129315;-34
2023/09/30 09:09:37;;;;;;;83.37;5.40;;;;;;;22.82;53.20;100405.38;7304305;19;128984;-34
2023/09/30 09:12:03;;;;;;;153.83;9.77;;;;;;;22.80;53.32;100404.66;7299982;19;131184;-37
2023/09/30 09:14:42;;;;;;;67.10;4.57;;;;;;;22.73;54.04;100406.13;7302520;19;131566;-33
2023/09/30 09:17:08;;;;;;;159.07;8.82;;;;;;;22.81;52.91;100419.44;7302244;19;129342;-34
2023/09/30 09:19:34;;;;;;;99.50;6.10;;;;;;;22.80;52.26;100423.00;7304163;19;129271;-33
2023/09/30 09:22:01;;;;;;;129.40;7.23;;;;;;;22.79;53.18;100421.38;7302316;19;131206;-35
2023/09/30 09:24:31;;;;;;;65.97;4.60;;;;;;;22.83;52.76;100422.75;7304514;19;130379;-35
2023/09/30 09:27:12;;;;;;;107.03;6.63;;;;;;;22.82;53.62;100423.72;7300889;19;129551;-34
2023/09/30 09:29:39;;;;;;;107.18;6.68;;;;;;;22.82;52.27;100424.56;7301328;19;129531;-34
2023/09/30 09:32:15;;;;;;;;;;;;;;;22.83;54.07;100426.22;7302213;19;130215;-34
2023/09/30 09:34:43;;;;;;;90.03;5.90;;;;;;;22.70;52.60;100409.00;7303587;19;130406;-37
2023/09/30 09:37:18;;;;;;;131.18;8.02;;;;;;;22.83;53.32;100420.97;7301658;19;129326;-34
2023/09/30 09:39:57;;;;;;;92.63;5.63;;;;;;;22.80;53.59;100418.63;7301705;19;129185;-36
2023/09/30 09:42:29;;;;;;;84.20;5.53;;;;;;;22.80;52.35;100417.78;7300622;19;130165;-34
2023/09/30 09:44:57;;;;;;;113.68;6.88;;;;;;;22.82;52.83;100418.47;7307078;19;130443;-37
2023/09/30 09:47:23;;;;;;;124.38;7.18;;;;;;;22.80;52.86;100417.78;7311155;19;130927;-36
2023/09/30 09:49:50;;;;;;;79.05;5.03;;;;;;;22.83;51.67;100417.50;7310049;19;129509;-34
2023/09/30 09:52:17;;;;;;;80.88;5.60;;;;;;;22.83;52.21;100428.84;7305092;19;130147;-37
2023/09/30 09:54:45;;;;;;;112.57;6.80;;;;;;;22.83;52.32;100430.63;7307289;19;130503;-35
2023/09/30 09:57:11;;;;;;;125.00;7.55;;;;;;;22.70;52.03;100401.13;7309394;19;129895;-37
2023/09/30 09:59:39;;;;;;;65.95;4.53;;;;;;;22.70;51.79;100395.91;7310606;19;128973;-35
2023/09/30 10:02:12;;;;;;;118.30;7.25;;;;;;;22.85;52.89;100423.47;7306740;19;130195;-37
2023/09/30 10:04:37;;;;;;;77.47;5.03;;;;;;;22.81;52.38;100406.31;7308727;19;130778;-33
2023/09/30 10:07:04;;;;;;;140.50;9.13;;;;;;;22.83;52.39;100415.72;7307982;19;129490;-36
2023/09/30 10:09:31;;;;;;;93.05;6.00;;;;;;;22.76;52.29;100411.09;7309542;19;129375;-35
2023/09/30 10:12:00;;;;;;;84.72;5.70;;;;;;;22.82;52.11;100416.69;7308467;19;130176;-34
2023/09/30 10:14:32;;;;;;;79.68;5.15;;;;;;;22.83;52.56;100418.34;7307124;19;130544;-34
2023/09/30 10:16:58;;;;;;;124.28;7.28;;;;;;;22.85;52.01;100423.47;7308830;19;128833;-38
2023/09/30 10:19:24;;;;;;;105.17;6.80;;;;;;;22.82;52.07;100421.94;7309878;19;129296;-33
2023/09/30 10:22:18;;;;;;;98.10;6.07;;;;;;;22.84;52.40;100421.81;7305288;19;130534;-34
2023/09/30 10:24:44;;;;;;;81.20;4.93;;;;;;;22.84;51.79;100421.81;7309447;19;130355;-35
2023/09/30 10:27:22;;;;;;;88.90;5.50;;;;;;;22.82;52.98;100418.47;7308201;19;129059;-37
2023/09/30 10:29:49;;;;;;;88.78;5.70;;;;;;;22.82;51.43;100421.09;7308476;19;129707;-36
2023/09/30 10:32:14;;;;;;;142.60;8.07;;;;;;;22.81;51.82;100419.44;7307305;19;130223;-37
2023/09/30 10:34:48;;;;;;;63.80;4.47;;;;;;;22.69;52.16;100405.53;7307466;19;129626;-33
2023/09/30 10:37:24;;;;;;;113.60;6.95;;;;;;;22.82;52.60;100421.09;7306314;19;129700;-35
2023/09/30 10:40:09;;;;;;;74.85;4.75;;;;;;;22.80;52.78;100420.41;7308472;19;129716;-36
2023/09/30 10:42:44;;;;;;;60.10;3.75;;;;;;;22.82;52.87;100421.09;7307609;19;130205;-37
2023/09/30 10:45:36;;;;;;;99.68;6.05;;;;;;;22.82;53.20;100426.34;7307442;19;131292;-35
2023/09/30 10:48:32;;;;;;;119.63;7.28;;;;;;;22.84;53.37;100425.25;7305723;19;129345;-33
2023/09/30 10:51:00;;;;;;;60.42;4.10;;;;;;;22.82;51.73;100431.59;7305812;19;129451;-35
2023/09/30 10:53:29;;;;;;;98.38;5.63;;;;;;;22.83;50.67;100423.59;7308092;19;130684;-34
2023/09/30 10:55:59;;;;;;;104.65;6.22;;;;;;;22.84;51.27;100424.44;7306782;19;129619;-36
2023/09/30 10:58:39;;;;;;;86.38;5.60;;;;;;;22.82;52.11;100421.09;7309579;19;129230;-34
2023/09/30 11:01:05;;;;;;;91.97;5.93;;;;;;;22.81;50.41;100427.28;7304947;19;129065;-35
2023/09/30 11:03:30;;;;;;;66.80;4.40;;;;;;;22.82;51.13;100431.59;7306910;19;130986;-34
2023/09/30 11:05:55;;;;;;;110.73;6.30;;;;;;;22.82;51.17;100415.88;7307158;19;130232;-32
2023/09/30 11:08:24;;;;;;;121.30;6.55;;;;;;;22.83;50.35;100417.50;7308404;19;128828;-35